sensor_id;sensor_type;location;lat;lon;timestamp;P1;durP1;ratioP1;P2;durP2;ratioP2
6928;SDS011;3504;52.616;13.238;2023-07-31T00:02:51;4.57;;;2.90;;
6928;SDS011;3504;52.616;13.238;2023-07-31T00:07:52;3.37;;;2.50;;
6928;SDS011;3504;52.616;13.238;2023-07-31T00:12:54;4.27;;;2.30;;
6928;SDS011;3504;52.616;13.238;2023-07-31T00:17:55;4.40;;;2.33;;
6928;SDS011;3504;52.616;13.238;2023-07-31T00:22:55;3.90;;;2.17;;
6928;SDS011;3504;52.616;13.238;2023-07-31T00:27:56;3.97;;;2.20;;
6928;SDS011;3504;52.616;13.238;2023-07-31T00:32:56;3.00;;;2.13;;
6928;SDS011;3504;52.616;13.238;2023-07-31T00:37:57;4.37;;;2.70;;
6928;SDS011;3504;52.616;13.238;2023-07-31T00:42:59;4.43;;;2.77;;
6928;SDS011;3504;52.616;13.238;2023-07-31T00:47:59;5.03;;;2.20;;
6928;SDS011;3504;52.616;13.238;2023-07-31T00:53:00;4.13;;;2.30;;
6928;SDS011;3504;52.616;13.238;2023-07-31T00:58:00;6.07;;;2.60;;
6928;SDS011;3504;52.616;13.238;2023-07-31T01:03:01;4.53;;;2.33;;
6928;SDS011;3504;52.616;13.238;2023-07-31T01:08:04;5.83;;;2.80;;
6928;SDS011;3504;52.616;13.238;2023-07-31T01:13:17;3.00;;;2.13;;
6928;SDS011;3504;52.616;13.238;2023-07-31T01:18:18;4.10;;;2.07;;
6928;SDS011;3504;52.616;13.238;2023-07-31T01:23:25;3.40;;;2.30;;
6928;SDS011;3504;52.616;13.238;2023-07-31T01:29:12;5.73;;;2.43;;
6928;SDS011;3504;52.616;13.238;2023-07-31T01:34:30;3.97;;;2.83;;
6928;SDS011;3504;52.616;13.238;2023-07-31T01:39:32;5.63;;;2.60;;
6928;SDS011;3504;52.616;13.238;2023-07-31T01:44:32;6.67;;;2.63;;
6928;SDS011;3504;52.616;13.238;2023-07-31T01:49:33;5.27;;;2.80;;
6928;SDS011;3504;52.616;13.238;2023-07-31T01:54:34;4.93;;;2.67;;
6928;SDS011;3504;52.616;13.238;2023-07-31T01:59:37;3.60;;;2.70;;
6928;SDS011;3504;52.616;13.238;2023-07-31T02:04:37;4.80;;;2.40;;
6928;SDS011;3504;52.616;13.238;2023-07-31T02:09:39;4.63;;;2.73;;
6928;SDS011;3504;52.616;13.238;2023-07-31T02:14:40;4.20;;;2.80;;
6928;SDS011;3504;52.616;13.238;2023-07-31T02:19:41;7.20;;;3.13;;
6928;SDS011;3504;52.616;13.238;2023-07-31T02:24:41;7.20;;;3.33;;
6928;SDS011;3504;52.616;13.238;2023-07-31T02:29:42;4.40;;;3.03;;
6928;SDS011;3504;52.616;13.238;2023-07-31T02:34:42;7.10;;;3.37;;
6928;SDS011;3504;52.616;13.238;2023-07-31T02:39:43;9.77;;;3.40;;
6928;SDS011;3504;52.616;13.238;2023-07-31T02:44:43;5.50;;;3.17;;
6928;SDS011;3504;52.616;13.238;2023-07-31T02:49:44;6.80;;;3.40;;
6928;SDS011;3504;52.616;13.238;2023-07-31T02:54:44;6.70;;;3.30;;
6928;SDS011;3504;52.616;13.238;2023-07-31T02:59:45;5.70;;;2.70;;
6928;SDS011;3504;52.616;13.238;2023-07-31T03:04:45;5.83;;;3.70;;
6928;SDS011;3504;52.616;13.238;2023-07-31T03:09:46;6.13;;;3.17;;
6928;SDS011;3504;52.616;13.238;2023-07-31T03:14:46;9.40;;;3.50;;
6928;SDS011;3504;52.616;13.238;2023-07-31T03:19:47;5.20;;;3.40;;
6928;SDS011;3504;52.616;13.238;2023-07-31T03:24:47;3.60;;;3.30;;
6928;SDS011;3504;52.616;13.238;2023-07-31T03:29:48;5.03;;;3.50;;
6928;SDS011;3504;52.616;13.238;2023-07-31T03:34:51;7.53;;;3.77;;
6928;SDS011;3504;52.616;13.238;2023-07-31T03:39:51;5.53;;;3.87;;
6928;SDS011;3504;52.616;13.238;2023-07-31T03:44:52;6.77;;;3.93;;
6928;SDS011;3504;52.616;13.238;2023-07-31T03:49:52;7.30;;;4.37;;
6928;SDS011;3504;52.616;13.238;2023-07-31T03:54:53;7.47;;;4.80;;
6928;SDS011;3504;52.616;13.238;2023-07-31T03:59:53;7.67;;;5.03;;
6928;SDS011;3504;52.616;13.238;2023-07-31T04:04:54;7.37;;;4.83;;
6928;SDS011;3504;52.616;13.238;2023-07-31T04:09:55;7.70;;;5.20;;
6928;SDS011;3504;52.616;13.238;2023-07-31T04:14:55;7.67;;;5.13;;
6928;SDS011;3504;52.616;13.238;2023-07-31T04:19:56;8.90;;;5.20;;
6928;SDS011;3504;52.616;13.238;2023-07-31T04:24:56;6.83;;;5.00;;
6928;SDS011;3504;52.616;13.238;2023-07-31T04:29:57;8.93;;;4.57;;
6928;SDS011;3504;52.616;13.238;2023-07-31T04:34:57;10.37;;;5.00;;
6928;SDS011;3504;52.616;13.238;2023-07-31T04:39:58;8.50;;;5.07;;
6928;SDS011;3504;52.616;13.238;2023-07-31T04:44:58;9.53;;;5.77;;
6928;SDS011;3504;52.616;13.238;2023-07-31T04:49:59;8.33;;;5.43;;
6928;SDS011;3504;52.616;13.238;2023-07-31T04:54:59;10.10;;;5.30;;
6928;SDS011;3504;52.616;13.238;2023-07-31T05:00:00;10.30;;;5.97;;
6928;SDS011;3504;52.616;13.238;2023-07-31T05:05:00;12.23;;;5.47;;
6928;SDS011;3504;52.616;13.238;2023-07-31T05:10:01;12.40;;;5.10;;
6928;SDS011;3504;52.616;13.238;2023-07-31T05:15:01;7.33;;;5.20;;
6928;SDS011;3504;52.616;13.238;2023-07-31T05:20:02;8.20;;;5.10;;
6928;SDS011;3504;52.616;13.238;2023-07-31T05:25:02;10.02;;;5.78;;
6928;SDS011;3504;52.616;13.238;2023-07-31T05:30:03;9.18;;;4.70;;
6928;SDS011;3504;52.616;13.238;2023-07-31T05:35:05;7.63;;;4.68;;
6928;SDS011;3504;52.616;13.238;2023-07-31T05:40:06;5.90;;;5.00;;
6928;SDS011;3504;52.616;13.238;2023-07-31T05:45:07;10.37;;;5.27;;
6928;SDS011;3504;52.616;13.238;2023-07-31T05:50:08;8.37;;;5.40;;
6928;SDS011;3504;52.616;13.238;2023-07-31T05:55:09;5.65;;;4.97;;
6928;SDS011;3504;52.616;13.238;2023-07-31T06:00:10;6.67;;;4.63;;
6928;SDS011;3504;52.616;13.238;2023-07-31T06:05:11;6.27;;;4.63;;
6928;SDS011;3504;52.616;13.238;2023-07-31T06:10:11;8.43;;;4.67;;
6928;SDS011;3504;52.616;13.238;2023-07-31T06:15:13;8.40;;;4.90;;
6928;SDS011;3504;52.616;13.238;2023-07-31T06:20:13;7.88;;;4.57;;
6928;SDS011;3504;52.616;13.238;2023-07-31T06:25:14;6.87;;;4.20;;
6928;SDS011;3504;52.616;13.238;2023-07-31T06:30:15;7.28;;;4.53;;
6928;SDS011;3504;52.616;13.238;2023-07-31T06:35:18;7.25;;;3.55;;
6928;SDS011;3504;52.616;13.238;2023-07-31T06:40:18;6.60;;;3.80;;
6928;SDS011;3504;52.616;13.238;2023-07-31T06:45:19;5.45;;;3.60;;
6928;SDS011;3504;52.616;13.238;2023-07-31T06:50:20;6.77;;;3.93;;
6928;SDS011;3504;52.616;13.238;2023-07-31T06:55:20;8.45;;;3.90;;
6928;SDS011;3504;52.616;13.238;2023-07-31T07:00:22;5.10;;;3.58;;
6928;SDS011;3504;52.616;13.238;2023-07-31T07:05:26;5.43;;;3.75;;
6928;SDS011;3504;52.616;13.238;2023-07-31T07:10:26;6.60;;;3.15;;
6928;SDS011;3504;52.616;13.238;2023-07-31T07:15:27;4.72;;;3.40;;
6928;SDS011;3504;52.616;13.238;2023-07-31T07:20:29;4.25;;;3.00;;
6928;SDS011;3504;52.616;13.238;2023-07-31T07:25:29;5.35;;;3.75;;
6928;SDS011;3504;52.616;13.238;2023-07-31T07:30:30;4.55;;;3.20;;
6928;SDS011;3504;52.616;13.238;2023-07-31T07:35:33;5.20;;;3.50;;
6928;SDS011;3504;52.616;13.238;2023-07-31T07:40:38;8.02;;;3.22;;
6928;SDS011;3504;52.616;13.238;2023-07-31T07:45:41;4.95;;;2.83;;
6928;SDS011;3504;52.616;13.238;2023-07-31T07:50:42;3.55;;;3.08;;
6928;SDS011;3504;52.616;13.238;2023-07-31T07:55:42;5.72;;;3.38;;
6928;SDS011;3504;52.616;13.238;2023-07-31T08:00:48;5.60;;;3.92;;
6928;SDS011;3504;52.616;13.238;2023-07-31T08:05:50;5.63;;;3.70;;
6928;SDS011;3504;52.616;13.238;2023-07-31T08:10:51;5.50;;;3.40;;
6928;SDS011;3504;52.616;13.238;2023-07-31T08:15:51;7.80;;;2.90;;
6928;SDS011;3504;52.616;13.238;2023-07-31T08:20:52;6.00;;;2.97;;
6928;SDS011;3504;52.616;13.238;2023-07-31T08:25:52;3.95;;;2.92;;
6928;SDS011;3504;52.616;13.238;2023-07-31T08:30:53;5.05;;;2.72;;
6928;SDS011;3504;52.616;13.238;2023-07-31T08:35:53;4.80;;;2.83;;
6928;SDS011;3504;52.616;13.238;2023-07-31T08:40:54;4.30;;;3.20;;
6928;SDS011;3504;52.616;13.238;2023-07-31T08:45:54;3.95;;;2.83;;
6928;SDS011;3504;52.616;13.238;2023-07-31T08:50:55;4.03;;;2.78;;
6928;SDS011;3504;52.616;13.238;2023-07-31T08:55:56;3.83;;;3.00;;
6928;SDS011;3504;52.616;13.238;2023-07-31T09:01:01;3.00;;;2.70;;
6928;SDS011;3504;52.616;13.238;2023-07-31T09:06:05;4.15;;;3.10;;
6928;SDS011;3504;52.616;13.238;2023-07-31T09:11:07;2.42;;;2.22;;
6928;SDS011;3504;52.616;13.238;2023-07-31T09:16:08;3.35;;;2.28;;
6928;SDS011;3504;52.616;13.238;2023-07-31T09:21:10;2.33;;;1.90;;
6928;SDS011;3504;52.616;13.238;2023-07-31T09:26:10;4.20;;;2.00;;
6928;SDS011;3504;52.616;13.238;2023-07-31T09:31:11;3.45;;;2.70;;
6928;SDS011;3504;52.616;13.238;2023-07-31T09:36:11;4.32;;;2.30;;
6928;SDS011;3504;52.616;13.238;2023-07-31T09:41:12;1.63;;;1.52;;
6928;SDS011;3504;52.616;13.238;2023-07-31T09:46:13;3.65;;;1.95;;
6928;SDS011;3504;52.616;13.238;2023-07-31T09:51:14;2.53;;;1.98;;
6928;SDS011;3504;52.616;13.238;2023-07-31T09:56:14;3.35;;;2.00;;
6928;SDS011;3504;52.616;13.238;2023-07-31T10:01:16;2.75;;;1.80;;
6928;SDS011;3504;52.616;13.238;2023-07-31T10:06:16;3.78;;;1.83;;
6928;SDS011;3504;52.616;13.238;2023-07-31T10:11:19;2.28;;;2.05;;
6928;SDS011;3504;52.616;13.238;2023-07-31T10:16:21;2.42;;;2.13;;
6928;SDS011;3504;52.616;13.238;2023-07-31T10:21:22;2.22;;;2.00;;
6928;SDS011;3504;52.616;13.238;2023-07-31T10:26:23;5.82;;;2.70;;
6928;SDS011;3504;52.616;13.238;2023-07-31T10:31:26;4.28;;;3.00;;
6928;SDS011;3504;52.616;13.238;2023-07-31T10:36:28;4.95;;;3.50;;
6928;SDS011;3504;52.616;13.238;2023-07-31T10:41:29;5.10;;;3.92;;
6928;SDS011;3504;52.616;13.238;2023-07-31T10:46:32;6.53;;;3.83;;
6928;SDS011;3504;52.616;13.238;2023-07-31T10:51:33;7.65;;;4.35;;
6928;SDS011;3504;52.616;13.238;2023-07-31T10:56:37;5.70;;;4.43;;
6928;SDS011;3504;52.616;13.238;2023-07-31T11:01:49;5.22;;;4.03;;
6928;SDS011;3504;52.616;13.238;2023-07-31T11:06:58;6.93;;;4.53;;
6928;SDS011;3504;52.616;13.238;2023-07-31T11:12:00;7.35;;;4.43;;
6928;SDS011;3504;52.616;13.238;2023-07-31T11:17:05;6.80;;;4.70;;
6928;SDS011;3504;52.616;13.238;2023-07-31T11:22:07;6.38;;;4.15;;
6928;SDS011;3504;52.616;13.238;2023-07-31T11:27:07;6.45;;;4.25;;
6928;SDS011;3504;52.616;13.238;2023-07-31T11:32:15;6.15;;;4.30;;
6928;SDS011;3504;52.616;13.238;2023-07-31T11:37:17;5.90;;;4.75;;
6928;SDS011;3504;52.616;13.238;2023-07-31T11:42:18;6.95;;;4.88;;
6928;SDS011;3504;52.616;13.238;2023-07-31T11:47:18;6.95;;;4.57;;
6928;SDS011;3504;52.616;13.238;2023-07-31T11:52:19;8.73;;;4.90;;
6928;SDS011;3504;52.616;13.238;2023-07-31T11:57:20;8.32;;;4.35;;
6928;SDS011;3504;52.616;13.238;2023-07-31T12:02:21;6.85;;;4.43;;
6928;SDS011;3504;52.616;13.238;2023-07-31T12:07:23;8.57;;;4.50;;
6928;SDS011;3504;52.616;13.238;2023-07-31T12:12:25;4.95;;;3.75;;
6928;SDS011;3504;52.616;13.238;2023-07-31T12:17:26;5.00;;;3.97;;
6928;SDS011;3504;52.616;13.238;2023-07-31T12:22:26;6.50;;;4.30;;
6928;SDS011;3504;52.616;13.238;2023-07-31T12:27:32;5.82;;;4.47;;
6928;SDS011;3504;52.616;13.238;2023-07-31T12:32:34;6.65;;;4.18;;
6928;SDS011;3504;52.616;13.238;2023-07-31T12:37:34;8.75;;;4.43;;
6928;SDS011;3504;52.616;13.238;2023-07-31T12:42:35;7.38;;;4.53;;
6928;SDS011;3504;52.616;13.238;2023-07-31T12:47:35;4.63;;;4.20;;
6928;SDS011;3504;52.616;13.238;2023-07-31T12:52:36;7.53;;;5.07;;
6928;SDS011;3504;52.616;13.238;2023-07-31T12:57:36;5.60;;;4.35;;
6928;SDS011;3504;52.616;13.238;2023-07-31T13:02:37;6.85;;;4.20;;
6928;SDS011;3504;52.616;13.238;2023-07-31T13:07:37;7.70;;;4.68;;
6928;SDS011;3504;52.616;13.238;2023-07-31T13:12:39;6.47;;;4.45;;
6928;SDS011;3504;52.616;13.238;2023-07-31T13:17:39;7.03;;;4.60;;
6928;SDS011;3504;52.616;13.238;2023-07-31T13:22:40;6.70;;;5.07;;
6928;SDS011;3504;52.616;13.238;2023-07-31T13:27:40;8.80;;;4.18;;
6928;SDS011;3504;52.616;13.238;2023-07-31T13:32:41;5.18;;;3.92;;
6928;SDS011;3504;52.616;13.238;2023-07-31T13:37:41;8.15;;;3.75;;
6928;SDS011;3504;52.616;13.238;2023-07-31T13:42:42;6.88;;;3.92;;
6928;SDS011;3504;52.616;13.238;2023-07-31T13:47:42;7.28;;;3.35;;
6928;SDS011;3504;52.616;13.238;2023-07-31T13:52:43;7.60;;;4.07;;
6928;SDS011;3504;52.616;13.238;2023-07-31T13:57:43;5.43;;;3.70;;
6928;SDS011;3504;52.616;13.238;2023-07-31T14:02:44;5.50;;;3.88;;
6928;SDS011;3504;52.616;13.238;2023-07-31T14:07:44;5.32;;;3.83;;
6928;SDS011;3504;52.616;13.238;2023-07-31T14:12:45;5.88;;;3.25;;
6928;SDS011;3504;52.616;13.238;2023-07-31T14:17:45;5.50;;;3.35;;
6928;SDS011;3504;52.616;13.238;2023-07-31T14:22:46;5.30;;;3.85;;
6928;SDS011;3504;52.616;13.238;2023-07-31T14:27:46;5.13;;;3.75;;
6928;SDS011;3504;52.616;13.238;2023-07-31T14:32:47;4.18;;;3.63;;
6928;SDS011;3504;52.616;13.238;2023-07-31T14:37:47;6.82;;;3.80;;
6928;SDS011;3504;52.616;13.238;2023-07-31T14:42:48;6.00;;;3.85;;
6928;SDS011;3504;52.616;13.238;2023-07-31T14:47:48;6.05;;;3.83;;
6928;SDS011;3504;52.616;13.238;2023-07-31T14:52:49;6.45;;;4.45;;
6928;SDS011;3504;52.616;13.238;2023-07-31T14:57:49;5.45;;;3.75;;
6928;SDS011;3504;52.616;13.238;2023-07-31T15:02:50;5.85;;;4.22;;
6928;SDS011;3504;52.616;13.238;2023-07-31T15:07:50;6.30;;;3.83;;
6928;SDS011;3504;52.616;13.238;2023-07-31T15:12:51;5.88;;;3.90;;
6928;SDS011;3504;52.616;13.238;2023-07-31T15:17:51;7.40;;;4.03;;
6928;SDS011;3504;52.616;13.238;2023-07-31T15:22:52;6.97;;;3.78;;
6928;SDS011;3504;52.616;13.238;2023-07-31T15:27:52;6.80;;;3.47;;
6928;SDS011;3504;52.616;13.238;2023-07-31T15:32:53;5.22;;;3.70;;
6928;SDS011;3504;52.616;13.238;2023-07-31T15:37:53;3.58;;;3.22;;
6928;SDS011;3504;52.616;13.238;2023-07-31T15:42:54;5.78;;;3.50;;
6928;SDS011;3504;52.616;13.238;2023-07-31T15:47:54;4.60;;;3.47;;
6928;SDS011;3504;52.616;13.238;2023-07-31T15:52:55;5.45;;;3.78;;
6928;SDS011;3504;52.616;13.238;2023-07-31T15:57:55;6.78;;;3.63;;
6928;SDS011;3504;52.616;13.238;2023-07-31T16:02:56;5.00;;;3.63;;
6928;SDS011;3504;52.616;13.238;2023-07-31T16:07:56;6.32;;;4.20;;
6928;SDS011;3504;52.616;13.238;2023-07-31T16:12:57;5.15;;;3.53;;
6928;SDS011;3504;52.616;13.238;2023-07-31T16:17:57;5.60;;;3.75;;
6928;SDS011;3504;52.616;13.238;2023-07-31T16:22:58;4.30;;;3.63;;
6928;SDS011;3504;52.616;13.238;2023-07-31T16:27:58;7.97;;;4.40;;
6928;SDS011;3504;52.616;13.238;2023-07-31T16:32:59;6.53;;;4.00;;
6928;SDS011;3504;52.616;13.238;2023-07-31T16:37:59;5.22;;;4.22;;
6928;SDS011;3504;52.616;13.238;2023-07-31T16:43:00;7.20;;;4.38;;
6928;SDS011;3504;52.616;13.238;2023-07-31T16:48:01;5.03;;;4.07;;
6928;SDS011;3504;52.616;13.238;2023-07-31T16:53:02;6.32;;;3.85;;
6928;SDS011;3504;52.616;13.238;2023-07-31T16:58:03;4.82;;;3.38;;
6928;SDS011;3504;52.616;13.238;2023-07-31T17:03:03;5.35;;;3.28;;
6928;SDS011;3504;52.616;13.238;2023-07-31T17:08:05;4.20;;;2.55;;
6928;SDS011;3504;52.616;13.238;2023-07-31T17:13:05;7.03;;;3.47;;
6928;SDS011;3504;52.616;13.238;2023-07-31T17:18:06;6.63;;;3.45;;
6928;SDS011;3504;52.616;13.238;2023-07-31T17:23:08;9.02;;;4.03;;
6928;SDS011;3504;52.616;13.238;2023-07-31T17:28:08;6.90;;;4.07;;
6928;SDS011;3504;52.616;13.238;2023-07-31T17:33:09;7.97;;;3.78;;
6928;SDS011;3504;52.616;13.238;2023-07-31T17:38:09;5.40;;;3.28;;
6928;SDS011;3504;52.616;13.238;2023-07-31T17:43:10;4.90;;;3.35;;
6928;SDS011;3504;52.616;13.238;2023-07-31T17:48:11;4.55;;;2.83;;
6928;SDS011;3504;52.616;13.238;2023-07-31T17:53:12;4.80;;;2.78;;
6928;SDS011;3504;52.616;13.238;2023-07-31T17:58:12;3.30;;;2.70;;
6928;SDS011;3504;52.616;13.238;2023-07-31T18:03:13;3.72;;;2.60;;
6928;SDS011;3504;52.616;13.238;2023-07-31T18:08:13;3.25;;;2.45;;
6928;SDS011;3504;52.616;13.238;2023-07-31T18:13:14;6.03;;;3.05;;
6928;SDS011;3504;52.616;13.238;2023-07-31T18:18:14;3.42;;;2.67;;
6928;SDS011;3504;52.616;13.238;2023-07-31T18:23:15;3.13;;;2.40;;
6928;SDS011;3504;52.616;13.238;2023-07-31T18:28:16;6.65;;;3.20;;
6928;SDS011;3504;52.616;13.238;2023-07-31T18:33:16;5.57;;;2.88;;
6928;SDS011;3504;52.616;13.238;2023-07-31T18:38:17;3.70;;;3.00;;
6928;SDS011;3504;52.616;13.238;2023-07-31T18:43:18;3.63;;;2.90;;
6928;SDS011;3504;52.616;13.238;2023-07-31T18:48:18;2.88;;;2.65;;
6928;SDS011;3504;52.616;13.238;2023-07-31T18:53:19;5.63;;;3.17;;
6928;SDS011;3504;52.616;13.238;2023-07-31T18:58:19;4.30;;;2.47;;
6928;SDS011;3504;52.616;13.238;2023-07-31T19:03:22;4.53;;;3.10;;
6928;SDS011;3504;52.616;13.238;2023-07-31T19:08:24;5.88;;;3.60;;
6928;SDS011;3504;52.616;13.238;2023-07-31T19:13:25;6.80;;;3.50;;
6928;SDS011;3504;52.616;13.238;2023-07-31T19:18:25;5.65;;;3.40;;
6928;SDS011;3504;52.616;13.238;2023-07-31T19:23:26;6.15;;;3.38;;
6928;SDS011;3504;52.616;13.238;2023-07-31T19:28:26;6.78;;;3.35;;
6928;SDS011;3504;52.616;13.238;2023-07-31T19:33:27;6.35;;;3.60;;
6928;SDS011;3504;52.616;13.238;2023-07-31T19:38:27;6.30;;;3.60;;
6928;SDS011;3504;52.616;13.238;2023-07-31T19:43:28;6.60;;;3.58;;
6928;SDS011;3504;52.616;13.238;2023-07-31T19:48:28;5.25;;;3.53;;
6928;SDS011;3504;52.616;13.238;2023-07-31T19:53:29;7.60;;;4.18;;
6928;SDS011;3504;52.616;13.238;2023-07-31T19:58:29;9.63;;;3.78;;
6928;SDS011;3504;52.616;13.238;2023-07-31T20:03:30;6.03;;;3.70;;
6928;SDS011;3504;52.616;13.238;2023-07-31T20:08:31;5.20;;;3.85;;
6928;SDS011;3504;52.616;13.238;2023-07-31T20:13:31;7.00;;;3.90;;
6928;SDS011;3504;52.616;13.238;2023-07-31T20:18:32;8.23;;;4.43;;
6928;SDS011;3504;52.616;13.238;2023-07-31T20:23:33;5.60;;;3.60;;
6928;SDS011;3504;52.616;13.238;2023-07-31T20:28:33;4.53;;;3.67;;
6928;SDS011;3504;52.616;13.238;2023-07-31T20:33:34;7.47;;;3.78;;
6928;SDS011;3504;52.616;13.238;2023-07-31T20:38:34;6.40;;;3.70;;
6928;SDS011;3504;52.616;13.238;2023-07-31T20:43:35;8.68;;;3.75;;
6928;SDS011;3504;52.616;13.238;2023-07-31T20:48:35;6.13;;;4.05;;
6928;SDS011;3504;52.616;13.238;2023-07-31T20:53:35;5.28;;;3.80;;
6928;SDS011;3504;52.616;13.238;2023-07-31T20:58:36;6.65;;;3.72;;
6928;SDS011;3504;52.616;13.238;2023-07-31T21:03:38;6.72;;;4.28;;
6928;SDS011;3504;52.616;13.238;2023-07-31T21:08:38;4.78;;;3.78;;
6928;SDS011;3504;52.616;13.238;2023-07-31T21:13:39;6.10;;;4.30;;
6928;SDS011;3504;52.616;13.238;2023-07-31T21:18:40;5.63;;;4.18;;
6928;SDS011;3504;52.616;13.238;2023-07-31T21:23:40;7.93;;;4.03;;
6928;SDS011;3504;52.616;13.238;2023-07-31T21:28:41;8.70;;;4.32;;
6928;SDS011;3504;52.616;13.238;2023-07-31T21:33:42;6.75;;;3.95;;
6928;SDS011;3504;52.616;13.238;2023-07-31T21:38:43;7.97;;;4.60;;
6928;SDS011;3504;52.616;13.238;2023-07-31T21:43:43;8.15;;;4.63;;
6928;SDS011;3504;52.616;13.238;2023-07-31T21:48:44;8.80;;;4.30;;
6928;SDS011;3504;52.616;13.238;2023-07-31T21:53:44;7.50;;;4.22;;
6928;SDS011;3504;52.616;13.238;2023-07-31T21:58:45;7.15;;;4.28;;
6928;SDS011;3504;52.616;13.238;2023-07-31T22:03:45;7.15;;;4.40;;
6928;SDS011;3504;52.616;13.238;2023-07-31T22:08:46;9.75;;;4.22;;
6928;SDS011;3504;52.616;13.238;2023-07-31T22:13:46;8.25;;;3.97;;
6928;SDS011;3504;52.616;13.238;2023-07-31T22:18:47;6.65;;;4.47;;
6928;SDS011;3504;52.616;13.238;2023-07-31T22:23:48;7.03;;;4.38;;
6928;SDS011;3504;52.616;13.238;2023-07-31T22:28:48;6.25;;;3.95;;
6928;SDS011;3504;52.616;13.238;2023-07-31T22:33:50;11.07;;;5.03;;
6928;SDS011;3504;52.616;13.238;2023-07-31T22:38:50;5.75;;;4.45;;
6928;SDS011;3504;52.616;13.238;2023-07-31T22:43:51;8.20;;;5.03;;
6928;SDS011;3504;52.616;13.238;2023-07-31T22:48:51;6.43;;;4.70;;
6928;SDS011;3504;52.616;13.238;2023-07-31T22:53:53;8.23;;;5.32;;
6928;SDS011;3504;52.616;13.238;2023-07-31T22:58:54;6.70;;;4.55;;
6928;SDS011;3504;52.616;13.238;2023-07-31T23:03:56;9.07;;;4.93;;
6928;SDS011;3504;52.616;13.238;2023-07-31T23:08:56;9.73;;;4.82;;
6928;SDS011;3504;52.616;13.238;2023-07-31T23:13:57;9.98;;;5.50;;
6928;SDS011;3504;52.616;13.238;2023-07-31T23:18:57;8.25;;;4.85;;
6928;SDS011;3504;52.616;13.238;2023-07-31T23:23:58;11.45;;;5.15;;
6928;SDS011;3504;52.616;13.238;2023-07-31T23:28:59;8.10;;;5.03;;
6928;SDS011;3504;52.616;13.238;2023-07-31T23:34:00;10.07;;;5.88;;
6928;SDS011;3504;52.616;13.238;2023-07-31T23:39:01;9.55;;;5.55;;
6928;SDS011;3504;52.616;13.238;2023-07-31T23:44:02;8.82;;;5.53;;
6928;SDS011;3504;52.616;13.238;2023-07-31T23:49:03;8.60;;;5.68;;
6928;SDS011;3504;52.616;13.238;2023-07-31T23:54:03;6.70;;;4.95;;
6928;SDS011;3504;52.616;13.238;2023-07-31T23:59:05;11.75;;;6.38;;
